Savage Perseverance — WDG9117 — position and weather

sailwx.info

Track history (hours):
 
Tides and Currents Weather Stations Pressure Air Temp Water Temp Dewpoint Dewpoint Depression Visibility Wind Speed Wind Dir Waves Ship Positions

Savage Perseverance

Owner: Savage Inland Marine, Gibson, LA. More information available from US FCC via Universal Licensing System and Coast Guard Vessel Documentation Center.

Last reported at 2017-Oct-14 16:28 UTC. Time now 2017-Nov-24 03:30 UTC.
Position N 32°40' W 091°07'.
Warning: this ship's position is 40 days out of date.

Length 28 m; draft 3.3 m.

Type: Towing. MMSI: 367584490.

Date/timePositionNaut miles runAvg speedWind from/ knotsBaromVisibWave heightAir tempDewpointWater temp
2017-Oct-14 16:28N 32°40' W 091°07'3 5.8
2017-Oct-14 15:59N 32°38' W 091°09'2 4.0
2017-Oct-14 15:30N 32°36' W 091°09'3 5.8
2017-Oct-14 15:00N 32°34' W 091°06'3 4.9
2017-Oct-14 14:29N 32°31' W 091°06'3 6.4
2017-Oct-14 14:00N 32°28' W 091°07'3 6.5
2017-Oct-14 13:30N 32°26' W 091°03'3 6.6
2017-Oct-14 13:00N 32°25' W 090°60'3 6.1
2017-Oct-14 12:30N 32°22' W 091°00'3 6.3
2017-Oct-14 12:00N 32°21' W 090°57'3 5.6
2017-Oct-14 11:30N 32°19' W 090°54'1 2.7
2017-Oct-14 11:00N 32°18' W 090°55'0 0.2
2017-Oct-14 10:30N 32°18' W 090°55'0 0.4
2017-Oct-14 10:00N 32°18' W 090°55'2 3.6
2017-Oct-14 09:30N 32°17' W 090°57'3 5.7
2017-Oct-14 09:00N 32°14' W 090°59'2 4.0
2017-Oct-14 08:30N 32°12' W 090°59'3 6.4
2017-Oct-14 08:00N 32°09' W 091°00'3 5.4
2017-Oct-14 07:27N 32°07' W 091°03'3 4.2
2017-Oct-14 06:50N 32°08' W 091°05'2 5.1
2017-Oct-14 06:30N 32°06' W 091°06'2 2.8
2017-Oct-14 05:58N 32°05' W 091°05'0 1.0
2017-Oct-14 05:30N 32°05' W 091°04'1 1.9
2017-Oct-14 05:00N 32°04' W 091°04'3 5.8
2017-Oct-14 04:30N 32°01' W 091°04'  
Track history (hours):
 
Tides and Currents Weather Stations Pressure Air Temp Water Temp Dewpoint Dewpoint Depression Visibility Wind Speed Wind Dir Waves Ship Positions

Savage Perseverance

Owner: Savage Inland Marine, Gibson, LA. More information available from US FCC via Universal Licensing System and Coast Guard Vessel Documentation Center.

Last reported at 2017-Oct-14 16:28 UTC. Time now 2017-Nov-24 03:30 UTC.
Position N 32°40' W 091°07'.
Warning: this ship's position is 40 days out of date.

Length 28 m; draft 3.3 m.

Type: Towing. MMSI: 367584490.

Date/timePositionNaut miles runAvg speedWind from/ knotsBaromVisibWave heightAir tempDewpointWater temp
2017-Oct-14 16:28N 32°40' W 091°07'3 5.8
2017-Oct-14 15:59N 32°38' W 091°09'2 4.0
2017-Oct-14 15:30N 32°36' W 091°09'3 5.8
2017-Oct-14 15:00N 32°34' W 091°06'3 4.9
2017-Oct-14 14:29N 32°31' W 091°06'3 6.4
2017-Oct-14 14:00N 32°28' W 091°07'3 6.5
2017-Oct-14 13:30N 32°26' W 091°03'3 6.6
2017-Oct-14 13:00N 32°25' W 090°60'3 6.1
2017-Oct-14 12:30N 32°22' W 091°00'3 6.3
2017-Oct-14 12:00N 32°21' W 090°57'3 5.6
2017-Oct-14 11:30N 32°19' W 090°54'1 2.7
2017-Oct-14 11:00N 32°18' W 090°55'0 0.2
2017-Oct-14 10:30N 32°18' W 090°55'0 0.4
2017-Oct-14 10:00N 32°18' W 090°55'2 3.6
2017-Oct-14 09:30N 32°17' W 090°57'3 5.7
2017-Oct-14 09:00N 32°14' W 090°59'2 4.0
2017-Oct-14 08:30N 32°12' W 090°59'3 6.4
2017-Oct-14 08:00N 32°09' W 091°00'3 5.4
2017-Oct-14 07:27N 32°07' W 091°03'3 4.2
2017-Oct-14 06:50N 32°08' W 091°05'2 5.1
2017-Oct-14 06:30N 32°06' W 091°06'2 2.8
2017-Oct-14 05:58N 32°05' W 091°05'0 1.0
2017-Oct-14 05:30N 32°05' W 091°04'1 1.9
2017-Oct-14 05:00N 32°04' W 091°04'3 5.8
2017-Oct-14 04:30N 32°01' W 091°04'  

Dump ship's entire track history